sensor_id;sensor_type;location;lat;lon;timestamp;pressure;altitude;pressure_sealevel;temperature;humidity
12949;BME280;6539;49.476;8.484;2023-03-03T00:01:48;100839.19;;;8.42;52.77
12949;BME280;6539;49.476;8.484;2023-03-03T00:04:13;100842.28;;;8.41;52.84
12949;BME280;6539;49.476;8.484;2023-03-03T00:06:39;100839.94;;;8.36;52.72
12949;BME280;6539;49.476;8.484;2023-03-03T00:09:05;100839.53;;;8.34;53.26
12949;BME280;6539;49.476;8.484;2023-03-03T00:11:31;100845.41;;;8.36;52.74
12949;BME280;6539;49.476;8.484;2023-03-03T00:13:56;100842.25;;;8.34;53.00
12949;BME280;6539;49.476;8.484;2023-03-03T00:16:34;100842.63;;;8.32;52.91
12949;BME280;6539;49.476;8.484;2023-03-03T00:19:17;100843.78;;;8.28;53.10
12949;BME280;6539;49.476;8.484;2023-03-03T00:21:48;100855.81;;;8.23;53.22
12949;BME280;6539;49.476;8.484;2023-03-03T00:24:35;100850.28;;;8.16;53.55
12949;BME280;6539;49.476;8.484;2023-03-03T00:27:26;100844.03;;;8.16;53.76
12949;BME280;6539;49.476;8.484;2023-03-03T00:29:59;100853.75;;;8.13;53.66
12949;BME280;6539;49.476;8.484;2023-03-03T00:34:55;100848.69;;;8.12;53.90
12949;BME280;6539;49.476;8.484;2023-03-03T00:37:33;100855.34;;;8.14;53.61
12949;BME280;6539;49.476;8.484;2023-03-03T00:40:22;100860.75;;;8.11;54.02
12949;BME280;6539;49.476;8.484;2023-03-03T00:42:58;100860.00;;;8.10;53.87
12949;BME280;6539;49.476;8.484;2023-03-03T00:45:54;100854.56;;;8.14;53.72
12949;BME280;6539;49.476;8.484;2023-03-03T00:48:40;100854.47;;;8.07;54.04
12949;BME280;6539;49.476;8.484;2023-03-03T00:51:28;100856.81;;;8.05;54.14
12949;BME280;6539;49.476;8.484;2023-03-03T00:53:56;100862.28;;;8.05;54.06
12949;BME280;6539;49.476;8.484;2023-03-03T00:56:23;100856.00;;;8.01;54.42
12949;BME280;6539;49.476;8.484;2023-03-03T00:58:52;100865.41;;;8.03;53.92
12949;BME280;6539;49.476;8.484;2023-03-03T01:01:18;100867.69;;;7.98;54.12
12949;BME280;6539;49.476;8.484;2023-03-03T01:03:44;100865.69;;;7.91;54.36
12949;BME280;6539;49.476;8.484;2023-03-03T01:06:12;100865.28;;;7.89;54.39
12949;BME280;6539;49.476;8.484;2023-03-03T01:08:38;100869.53;;;7.87;54.51
12949;BME280;6539;49.476;8.484;2023-03-03T01:11:25;100864.44;;;7.85;54.66
12949;BME280;6539;49.476;8.484;2023-03-03T01:13:53;100868.72;;;7.83;54.87
12949;BME280;6539;49.476;8.484;2023-03-03T01:16:21;100864.38;;;7.78;54.79
12949;BME280;6539;49.476;8.484;2023-03-03T01:18:47;100859.66;;;7.79;54.84
12949;BME280;6539;49.476;8.484;2023-03-03T01:21:13;100866.31;;;7.78;54.87
12949;BME280;6539;49.476;8.484;2023-03-03T01:23:41;100869.03;;;7.74;55.22
12949;BME280;6539;49.476;8.484;2023-03-03T01:26:09;100867.44;;;7.73;55.06
12949;BME280;6539;49.476;8.484;2023-03-03T01:28:35;100857.28;;;7.74;55.10
12949;BME280;6539;49.476;8.484;2023-03-03T01:31:04;100864.69;;;7.69;55.18
12949;BME280;6539;49.476;8.484;2023-03-03T01:33:32;100859.22;;;7.69;55.22
12949;BME280;6539;49.476;8.484;2023-03-03T01:35:58;100861.88;;;7.66;55.27
12949;BME280;6539;49.476;8.484;2023-03-03T01:38:27;100861.13;;;7.65;55.26
12949;BME280;6539;49.476;8.484;2023-03-03T01:40:57;100865.72;;;7.61;55.47
12949;BME280;6539;49.476;8.484;2023-03-03T01:43:30;100862.19;;;7.57;55.39
12949;BME280;6539;49.476;8.484;2023-03-03T01:48:30;100862.47;;;7.49;55.61
12949;BME280;6539;49.476;8.484;2023-03-03T01:51:03;100856.97;;;7.45;55.51
12949;BME280;6539;49.476;8.484;2023-03-03T01:54:10;100858.88;;;7.41;55.78
12949;BME280;6539;49.476;8.484;2023-03-03T01:56:34;100858.41;;;7.36;56.02
12949;BME280;6539;49.476;8.484;2023-03-03T01:59:15;100851.44;;;7.38;55.84
12949;BME280;6539;49.476;8.484;2023-03-03T02:01:43;100850.63;;;7.38;55.94
12949;BME280;6539;49.476;8.484;2023-03-03T02:04:10;100849.91;;;7.41;55.62
12949;BME280;6539;49.476;8.484;2023-03-03T02:06:42;100854.19;;;7.42;55.83
12949;BME280;6539;49.476;8.484;2023-03-03T02:12:01;100848.66;;;7.35;55.83
12949;BME280;6539;49.476;8.484;2023-03-03T02:14:29;100839.66;;;7.31;56.28
12949;BME280;6539;49.476;8.484;2023-03-03T02:16:55;100838.44;;;7.28;56.10
12949;BME280;6539;49.476;8.484;2023-03-03T02:22:07;100852.03;;;7.25;56.29
12949;BME280;6539;49.476;8.484;2023-03-03T02:24:49;100856.72;;;7.24;56.45
12949;BME280;6539;49.476;8.484;2023-03-03T02:27:15;100855.13;;;7.23;56.25
12949;BME280;6539;49.476;8.484;2023-03-03T02:29:41;100845.75;;;7.21;56.35
12949;BME280;6539;49.476;8.484;2023-03-03T02:32:10;100848.13;;;7.22;56.57
12949;BME280;6539;49.476;8.484;2023-03-03T02:34:50;100846.94;;;7.23;56.20
12949;BME280;6539;49.476;8.484;2023-03-03T02:37:18;100844.53;;;7.18;56.61
12949;BME280;6539;49.476;8.484;2023-03-03T02:39:44;100851.16;;;7.17;56.61
12949;BME280;6539;49.476;8.484;2023-03-03T02:42:19;100860.09;;;7.14;56.77
12949;BME280;6539;49.476;8.484;2023-03-03T02:44:46;100857.28;;;7.07;57.13
12949;BME280;6539;49.476;8.484;2023-03-03T02:47:14;100851.06;;;7.10;56.93
12949;BME280;6539;49.476;8.484;2023-03-03T02:49:40;100846.84;;;7.16;57.06
12949;BME280;6539;49.476;8.484;2023-03-03T02:52:10;100852.28;;;7.13;56.74
12949;BME280;6539;49.476;8.484;2023-03-03T02:54:37;100844.91;;;7.17;56.74
12949;BME280;6539;49.476;8.484;2023-03-03T02:57:05;100848.81;;;7.16;56.49
12949;BME280;6539;49.476;8.484;2023-03-03T02:59:34;100846.53;;;7.21;56.39
12949;BME280;6539;49.476;8.484;2023-03-03T03:02:00;100851.69;;;7.26;56.25
12949;BME280;6539;49.476;8.484;2023-03-03T03:04:26;100846.63;;;7.28;56.05
12949;BME280;6539;49.476;8.484;2023-03-03T03:06:55;100843.50;;;7.26;55.99
12949;BME280;6539;49.476;8.484;2023-03-03T03:09:24;100843.06;;;7.24;55.69
12949;BME280;6539;49.476;8.484;2023-03-03T03:11:51;100846.91;;;7.20;55.75
12949;BME280;6539;49.476;8.484;2023-03-03T03:14:19;100846.13;;;7.19;55.32
12949;BME280;6539;49.476;8.484;2023-03-03T03:16:48;100853.16;;;7.20;54.83
12949;BME280;6539;49.476;8.484;2023-03-03T03:19:16;100850.38;;;7.17;54.18
12949;BME280;6539;49.476;8.484;2023-03-03T03:21:44;100848.75;;;7.12;53.61
12949;BME280;6539;49.476;8.484;2023-03-03T03:24:12;100848.72;;;7.09;52.29
12949;BME280;6539;49.476;8.484;2023-03-03T03:26:40;100848.69;;;7.05;51.18
12949;BME280;6539;49.476;8.484;2023-03-03T03:29:05;100850.53;;;6.98;50.76
12949;BME280;6539;49.476;8.484;2023-03-03T03:31:32;100842.28;;;6.94;49.96
12949;BME280;6539;49.476;8.484;2023-03-03T03:34:00;100859.28;;;6.84;49.33
12949;BME280;6539;49.476;8.484;2023-03-03T03:36:28;100855.41;;;6.85;49.21
12949;BME280;6539;49.476;8.484;2023-03-03T03:38:54;100859.28;;;6.84;49.07
12949;BME280;6539;49.476;8.484;2023-03-03T03:41:25;100860.13;;;6.88;48.91
12949;BME280;6539;49.476;8.484;2023-03-03T03:43:51;100862.44;;;6.86;49.15
12949;BME280;6539;49.476;8.484;2023-03-03T03:46:17;100856.22;;;6.85;49.01
12949;BME280;6539;49.476;8.484;2023-03-03T03:48:45;100862.03;;;6.84;48.59
12949;BME280;6539;49.476;8.484;2023-03-03T03:51:11;100865.13;;;6.82;47.58
12949;BME280;6539;49.476;8.484;2023-03-03T03:53:37;100863.88;;;6.76;47.44
12949;BME280;6539;49.476;8.484;2023-03-03T03:56:06;100866.97;;;6.75;47.53
12949;BME280;6539;49.476;8.484;2023-03-03T03:58:36;100869.22;;;6.69;47.13
12949;BME280;6539;49.476;8.484;2023-03-03T04:01:05;100870.00;;;6.70;46.94
12949;BME280;6539;49.476;8.484;2023-03-03T04:03:32;100865.34;;;6.70;47.06
12949;BME280;6539;49.476;8.484;2023-03-03T04:05:58;100877.03;;;6.71;46.97
12949;BME280;6539;49.476;8.484;2023-03-03T04:08:28;100875.47;;;6.70;46.56
12949;BME280;6539;49.476;8.484;2023-03-03T04:10:54;100873.84;;;6.65;46.65
12949;BME280;6539;49.476;8.484;2023-03-03T04:13:20;100866.03;;;6.64;46.80
12949;BME280;6539;49.476;8.484;2023-03-03T04:15:46;100869.22;;;6.69;46.58
12949;BME280;6539;49.476;8.484;2023-03-03T04:18:12;100866.44;;;6.66;46.60
12949;BME280;6539;49.476;8.484;2023-03-03T04:20:40;100866.06;;;6.67;46.69
12949;BME280;6539;49.476;8.484;2023-03-03T04:23:05;100864.56;;;6.70;46.65
12949;BME280;6539;49.476;8.484;2023-03-03T04:25:36;100867.28;;;6.70;46.63
12949;BME280;6539;49.476;8.484;2023-03-03T04:28:01;100866.88;;;6.68;46.74
12949;BME280;6539;49.476;8.484;2023-03-03T04:30:27;100866.91;;;6.71;46.77
12949;BME280;6539;49.476;8.484;2023-03-03T04:32:53;100869.25;;;6.73;46.45
12949;BME280;6539;49.476;8.484;2023-03-03T04:35:21;100868.00;;;6.67;46.67
12949;BME280;6539;49.476;8.484;2023-03-03T04:37:48;100869.09;;;6.62;46.60
12949;BME280;6539;49.476;8.484;2023-03-03T04:40:19;100867.47;;;6.58;46.73
12949;BME280;6539;49.476;8.484;2023-03-03T04:42:45;100868.63;;;6.57;46.98
12949;BME280;6539;49.476;8.484;2023-03-03T04:45:13;100873.00;;;6.61;47.02
12949;BME280;6539;49.476;8.484;2023-03-03T04:47:41;100875.66;;;6.58;47.09
12949;BME280;6539;49.476;8.484;2023-03-03T04:50:11;100877.28;;;6.62;47.53
12949;BME280;6539;49.476;8.484;2023-03-03T04:52:37;100875.41;;;6.66;46.98
12949;BME280;6539;49.476;8.484;2023-03-03T04:55:05;100886.56;;;6.58;47.23
12949;BME280;6539;49.476;8.484;2023-03-03T04:57:36;100881.47;;;6.56;47.52
12949;BME280;6539;49.476;8.484;2023-03-03T05:00:03;100883.78;;;6.54;47.76
12949;BME280;6539;49.476;8.484;2023-03-03T05:02:29;100885.22;;;6.45;48.12
12949;BME280;6539;49.476;8.484;2023-03-03T05:04:55;100890.66;;;6.45;48.10
12949;BME280;6539;49.476;8.484;2023-03-03T05:07:20;100884.09;;;6.49;48.43
12949;BME280;6539;49.476;8.484;2023-03-03T05:09:48;100898.09;;;6.48;48.37
12949;BME280;6539;49.476;8.484;2023-03-03T05:12:16;100893.75;;;6.43;48.46
12949;BME280;6539;49.476;8.484;2023-03-03T05:14:42;100897.50;;;6.35;49.08
12949;BME280;6539;49.476;8.484;2023-03-03T05:17:15;100894.34;;;6.33;49.62
12949;BME280;6539;49.476;8.484;2023-03-03T05:19:44;100908.41;;;6.35;49.43
12949;BME280;6539;49.476;8.484;2023-03-03T05:22:10;100907.75;;;6.42;49.89
12949;BME280;6539;49.476;8.484;2023-03-03T05:24:36;100914.25;;;6.34;50.37
12949;BME280;6539;49.476;8.484;2023-03-03T05:27:01;100907.19;;;6.33;50.28
12949;BME280;6539;49.476;8.484;2023-03-03T05:29:28;100911.84;;;6.32;50.41
12949;BME280;6539;49.476;8.484;2023-03-03T05:31:57;100916.84;;;6.27;50.65
12949;BME280;6539;49.476;8.484;2023-03-03T05:34:25;100922.25;;;6.23;51.17
12949;BME280;6539;49.476;8.484;2023-03-03T05:36:50;100917.44;;;6.17;51.30
12949;BME280;6539;49.476;8.484;2023-03-03T05:39:18;100925.97;;;6.15;51.41
12949;BME280;6539;49.476;8.484;2023-03-03T05:41:45;100921.31;;;6.15;51.61
12949;BME280;6539;49.476;8.484;2023-03-03T05:44:10;100932.81;;;6.05;52.02
12949;BME280;6539;49.476;8.484;2023-03-03T05:46:36;100932.81;;;6.05;52.37
12949;BME280;6539;49.476;8.484;2023-03-03T05:49:02;100937.41;;;6.01;52.52
12949;BME280;6539;49.476;8.484;2023-03-03T05:51:28;100944.84;;;6.04;52.39
12949;BME280;6539;49.476;8.484;2023-03-03T05:53:56;100948.22;;;5.98;52.87
12949;BME280;6539;49.476;8.484;2023-03-03T05:56:27;100956.41;;;5.98;52.96
12949;BME280;6539;49.476;8.484;2023-03-03T05:58:55;100953.75;;;6.01;53.16
12949;BME280;6539;49.476;8.484;2023-03-03T06:01:20;100951.38;;;6.00;52.80
12949;BME280;6539;49.476;8.484;2023-03-03T06:03:51;100948.19;;;5.94;53.38
12949;BME280;6539;49.476;8.484;2023-03-03T06:06:17;100947.31;;;5.90;53.38
12949;BME280;6539;49.476;8.484;2023-03-03T06:08:44;100940.22;;;5.86;53.75
12949;BME280;6539;49.476;8.484;2023-03-03T06:11:10;100947.59;;;5.85;53.83
12949;BME280;6539;49.476;8.484;2023-03-03T06:13:42;100953.06;;;5.85;53.64
12949;BME280;6539;49.476;8.484;2023-03-03T06:16:07;100946.72;;;5.81;53.99
12949;BME280;6539;49.476;8.484;2023-03-03T06:18:33;100941.28;;;5.81;53.74
12949;BME280;6539;49.476;8.484;2023-03-03T06:20:59;100942.06;;;5.82;53.84
12949;BME280;6539;49.476;8.484;2023-03-03T06:23:30;100941.13;;;5.74;53.02
12949;BME280;6539;49.476;8.484;2023-03-03T06:25:56;100946.66;;;5.78;53.26
12949;BME280;6539;49.476;8.484;2023-03-03T06:28:22;100949.28;;;5.74;53.47
12949;BME280;6539;49.476;8.484;2023-03-03T06:30:53;100950.50;;;5.77;53.52
12949;BME280;6539;49.476;8.484;2023-03-03T06:33:19;100954.22;;;5.84;53.72
12949;BME280;6539;49.476;8.484;2023-03-03T06:35:53;100947.75;;;5.92;53.61
12949;BME280;6539;49.476;8.484;2023-03-03T06:38:19;100957.41;;;5.90;53.92
12949;BME280;6539;49.476;8.484;2023-03-03T06:40:46;100956.34;;;5.94;53.59
12949;BME280;6539;49.476;8.484;2023-03-03T06:43:13;100966.88;;;5.96;53.46
12949;BME280;6539;49.476;8.484;2023-03-03T06:45:39;100968.38;;;5.93;53.61
12949;BME280;6539;49.476;8.484;2023-03-03T06:48:07;100970.81;;;5.98;53.46
12949;BME280;6539;49.476;8.484;2023-03-03T06:50:33;100967.81;;;6.03;53.58
12949;BME280;6539;49.476;8.484;2023-03-03T06:53:10;100980.06;;;6.13;53.45
12949;BME280;6539;49.476;8.484;2023-03-03T06:55:37;100994.19;;;6.19;53.08
12949;BME280;6539;49.476;8.484;2023-03-03T06:58:19;101003.66;;;6.25;53.29
12949;BME280;6539;49.476;8.484;2023-03-03T07:00:57;101007.94;;;6.26;53.54
12949;BME280;6539;49.476;8.484;2023-03-03T07:03:26;101006.84;;;6.30;53.47
12949;BME280;6539;49.476;8.484;2023-03-03T07:05:54;101005.06;;;6.38;53.34
12949;BME280;6539;49.476;8.484;2023-03-03T07:08:31;101009.00;;;6.40;53.53
12949;BME280;6539;49.476;8.484;2023-03-03T07:11:07;101011.38;;;6.42;53.72
12949;BME280;6539;49.476;8.484;2023-03-03T07:13:46;101009.00;;;6.40;53.99
12949;BME280;6539;49.476;8.484;2023-03-03T07:16:13;101013.31;;;6.41;54.01
12949;BME280;6539;49.476;8.484;2023-03-03T07:18:53;101012.22;;;6.46;54.13
12949;BME280;6539;49.476;8.484;2023-03-03T07:21:34;101013.50;;;6.52;53.79
12949;BME280;6539;49.476;8.484;2023-03-03T07:24:27;101008.78;;;6.49;53.88
12949;BME280;6539;49.476;8.484;2023-03-03T07:29:38;101008.63;;;6.64;53.49
12949;BME280;6539;49.476;8.484;2023-03-03T07:32:25;101017.06;;;6.56;53.85
12949;BME280;6539;49.476;8.484;2023-03-03T07:34:55;101011.75;;;6.63;53.78
12949;BME280;6539;49.476;8.484;2023-03-03T07:37:39;101024.44;;;6.74;53.19
12949;BME280;6539;49.476;8.484;2023-03-03T07:40:40;101019.78;;;7.01;52.95
12949;BME280;6539;49.476;8.484;2023-03-03T07:43:40;101023.31;;;8.13;50.65
12949;BME280;6539;49.476;8.484;2023-03-03T07:46:29;101039.25;;;9.21;47.42
12949;BME280;6539;49.476;8.484;2023-03-03T07:49:35;101035.56;;;10.44;44.41
12949;BME280;6539;49.476;8.484;2023-03-03T07:54:45;101033.88;;;12.12;40.06
12949;BME280;6539;49.476;8.484;2023-03-03T07:57:26;101040.22;;;12.74;39.09
12949;BME280;6539;49.476;8.484;2023-03-03T08:00:08;101032.78;;;13.23;37.73
12949;BME280;6539;49.476;8.484;2023-03-03T08:05:41;101046.09;;;14.06;35.77
12949;BME280;6539;49.476;8.484;2023-03-03T08:10:54;101050.78;;;14.69;34.50
12949;BME280;6539;49.476;8.484;2023-03-03T08:13:23;101060.88;;;14.83;34.48
12949;BME280;6539;49.476;8.484;2023-03-03T08:18:49;101066.34;;;14.86;33.92
12949;BME280;6539;49.476;8.484;2023-03-03T08:21:24;101073.38;;;14.91;33.64
12949;BME280;6539;49.476;8.484;2023-03-03T08:23:52;101071.75;;;15.20;33.73
12949;BME280;6539;49.476;8.484;2023-03-03T08:26:21;101064.09;;;15.51;33.29
12949;BME280;6539;49.476;8.484;2023-03-03T08:28:47;101071.81;;;15.63;33.08
12949;BME280;6539;49.476;8.484;2023-03-03T08:31:13;101072.81;;;15.72;32.57
12949;BME280;6539;49.476;8.484;2023-03-03T08:33:44;101080.75;;;15.70;32.63
12949;BME280;6539;49.476;8.484;2023-03-03T08:36:11;101076.09;;;15.67;33.26
12949;BME280;6539;49.476;8.484;2023-03-03T08:38:39;101080.00;;;15.89;32.82
12949;BME280;6539;49.476;8.484;2023-03-03T08:41:10;101066.09;;;15.93;32.87
12949;BME280;6539;49.476;8.484;2023-03-03T08:43:36;101067.03;;;16.06;32.23
12949;BME280;6539;49.476;8.484;2023-03-03T08:46:06;101062.69;;;16.25;32.07
12949;BME280;6539;49.476;8.484;2023-03-03T08:48:37;101063.94;;;16.40;31.92
12949;BME280;6539;49.476;8.484;2023-03-03T08:51:10;101071.91;;;16.38;31.55
12949;BME280;6539;49.476;8.484;2023-03-03T08:53:40;101063.50;;;16.41;31.39
12949;BME280;6539;49.476;8.484;2023-03-03T08:56:09;101066.50;;;16.50;31.59
12949;BME280;6539;49.476;8.484;2023-03-03T08:58:34;101068.78;;;16.55;31.48
12949;BME280;6539;49.476;8.484;2023-03-03T09:01:03;101076.84;;;16.30;31.86
12949;BME280;6539;49.476;8.484;2023-03-03T09:03:33;101073.03;;;16.40;32.02
12949;BME280;6539;49.476;8.484;2023-03-03T09:05:59;101072.81;;;16.70;31.93
12949;BME280;6539;49.476;8.484;2023-03-03T09:08:25;101083.41;;;16.75;31.89
12949;BME280;6539;49.476;8.484;2023-03-03T09:10:50;101079.19;;;16.51;32.93
12949;BME280;6539;49.476;8.484;2023-03-03T09:13:19;101078.16;;;16.61;32.52
12949;BME280;6539;49.476;8.484;2023-03-03T09:15:46;101085.09;;;16.69;32.10
12949;BME280;6539;49.476;8.484;2023-03-03T09:20:48;101082.56;;;17.11;34.54
12949;BME280;6539;49.476;8.484;2023-03-03T09:23:33;101074.41;;;17.20;31.04
12949;BME280;6539;49.476;8.484;2023-03-03T09:31:48;101079.25;;;17.32;31.29
12949;BME280;6539;49.476;8.484;2023-03-03T09:34:42;101090.81;;;17.46;30.51
12949;BME280;6539;49.476;8.484;2023-03-03T09:37:24;101082.91;;;17.61;30.40
12949;BME280;6539;49.476;8.484;2023-03-03T09:39:54;101082.97;;;17.74;30.46
12949;BME280;6539;49.476;8.484;2023-03-03T09:43:00;101084.13;;;17.60;30.00
12949;BME280;6539;49.476;8.484;2023-03-03T09:46:12;101079.78;;;17.59;30.09
12949;BME280;6539;49.476;8.484;2023-03-03T09:51:55;101093.50;;;17.66;29.96
12949;BME280;6539;49.476;8.484;2023-03-03T09:54:55;101086.88;;;17.76;31.56
12949;BME280;6539;49.476;8.484;2023-03-03T10:03:31;101098.16;;;17.37;31.58
12949;BME280;6539;49.476;8.484;2023-03-03T10:22:25;101104.69;;;16.43;32.97
12949;BME280;6539;49.476;8.484;2023-03-03T10:36:18;101109.72;;;15.89;34.76
12949;BME280;6539;49.476;8.484;2023-03-03T10:44:44;101091.88;;;16.10;33.69
12949;BME280;6539;49.476;8.484;2023-03-03T10:53:20;101100.69;;;16.24;33.43
12949;BME280;6539;49.476;8.484;2023-03-03T11:04:43;101094.44;;;16.20;33.34
12949;BME280;6539;49.476;8.484;2023-03-03T11:07:23;101098.69;;;16.25;33.40
12949;BME280;6539;49.476;8.484;2023-03-03T11:25:11;101102.84;;;16.17;33.10
12949;BME280;6539;49.476;8.484;2023-03-03T11:31:20;101093.09;;;16.09;33.66
12949;BME280;6539;49.476;8.484;2023-03-03T11:36:49;101087.75;;;16.18;33.39
12949;BME280;6539;49.476;8.484;2023-03-03T11:39:22;101087.63;;;16.25;33.21
12949;BME280;6539;49.476;8.484;2023-03-03T11:44:44;101089.34;;;16.19;32.95
12949;BME280;6539;49.476;8.484;2023-03-03T11:55:05;101067.03;;;16.06;34.20
12949;BME280;6539;49.476;8.484;2023-03-03T12:12:30;101067.94;;;15.80;33.80
12949;BME280;6539;49.476;8.484;2023-03-03T12:20:57;101060.91;;;15.95;33.42
12949;BME280;6539;49.476;8.484;2023-03-03T12:27:24;101057.84;;;15.70;33.33
12949;BME280;6539;49.476;8.484;2023-03-03T12:34:07;101034.13;;;15.69;33.46
12949;BME280;6539;49.476;8.484;2023-03-03T12:39:44;101029.19;;;15.80;33.44
12949;BME280;6539;49.476;8.484;2023-03-03T12:42:29;101031.50;;;15.81;33.30
12949;BME280;6539;49.476;8.484;2023-03-03T12:48:22;101022.06;;;15.79;32.80
12949;BME280;6539;49.476;8.484;2023-03-03T12:51:01;101019.81;;;15.74;33.35
12949;BME280;6539;49.476;8.484;2023-03-03T12:56:19;101009.44;;;15.78;33.07
12949;BME280;6539;49.476;8.484;2023-03-03T12:59:09;101009.22;;;15.69;32.95
12949;BME280;6539;49.476;8.484;2023-03-03T13:01:47;101004.25;;;15.60;33.68
12949;BME280;6539;49.476;8.484;2023-03-03T13:07:22;100995.22;;;15.56;33.58
12949;BME280;6539;49.476;8.484;2023-03-03T13:10:29;100993.84;;;15.45;33.34
12949;BME280;6539;49.476;8.484;2023-03-03T13:13:39;100997.78;;;15.47;34.05
12949;BME280;6539;49.476;8.484;2023-03-03T13:16:32;101000.88;;;15.49;33.93
12949;BME280;6539;49.476;8.484;2023-03-03T13:19:11;101009.28;;;15.46;33.85
12949;BME280;6539;49.476;8.484;2023-03-03T13:22:12;100998.78;;;15.34;34.87
12949;BME280;6539;49.476;8.484;2023-03-03T13:25:01;101007.16;;;15.30;34.64
12949;BME280;6539;49.476;8.484;2023-03-03T13:27:37;100999.41;;;15.21;36.17
12949;BME280;6539;49.476;8.484;2023-03-03T13:30:21;100998.97;;;15.23;36.61
12949;BME280;6539;49.476;8.484;2023-03-03T13:33:13;100999.41;;;15.21;36.61
12949;BME280;6539;49.476;8.484;2023-03-03T13:35:50;100992.59;;;15.26;36.82
12949;BME280;6539;49.476;8.484;2023-03-03T13:38:28;100997.69;;;15.27;39.08
12949;BME280;6539;49.476;8.484;2023-03-03T14:01:57;100985.53;;;14.52;35.91
12949;BME280;6539;49.476;8.484;2023-03-03T14:07:38;100976.50;;;14.48;35.58
12949;BME280;6539;49.476;8.484;2023-03-03T14:13:08;100972.38;;;14.33;36.10
12949;BME280;6539;49.476;8.484;2023-03-03T14:15:57;100964.16;;;14.26;36.27
12949;BME280;6539;49.476;8.484;2023-03-03T14:19:09;100956.75;;;14.19;36.24
12949;BME280;6539;49.476;8.484;2023-03-03T14:24:18;100953.78;;;14.07;36.83
12949;BME280;6539;49.476;8.484;2023-03-03T14:26:52;100950.00;;;13.94;36.71
12949;BME280;6539;49.476;8.484;2023-03-03T14:29:32;100948.03;;;13.94;36.76
12949;BME280;6539;49.476;8.484;2023-03-03T14:32:00;100945.34;;;13.91;36.82
12949;BME280;6539;49.476;8.484;2023-03-03T14:34:40;100943.81;;;13.86;36.58
12949;BME280;6539;49.476;8.484;2023-03-03T14:37:48;100941.94;;;13.76;37.01
12949;BME280;6539;49.476;8.484;2023-03-03T14:40:20;100947.16;;;13.70;36.96
12949;BME280;6539;49.476;8.484;2023-03-03T14:42:53;100950.34;;;13.69;37.27
12949;BME280;6539;49.476;8.484;2023-03-03T14:45:38;100948.03;;;13.64;37.17
12949;BME280;6539;49.476;8.484;2023-03-03T14:48:25;100948.91;;;13.57;37.13
12949;BME280;6539;49.476;8.484;2023-03-03T14:50:57;100948.53;;;13.55;36.98
12949;BME280;6539;49.476;8.484;2023-03-03T14:53:43;100944.59;;;13.53;37.29
12949;BME280;6539;49.476;8.484;2023-03-03T14:59:19;100931.25;;;13.48;37.24
12949;BME280;6539;49.476;8.484;2023-03-03T15:04:35;100927.38;;;13.45;37.17
12949;BME280;6539;49.476;8.484;2023-03-03T15:07:32;100942.34;;;13.44;40.12
12949;BME280;6539;49.476;8.484;2023-03-03T15:10:02;100944.72;;;13.42;39.56
12949;BME280;6539;49.476;8.484;2023-03-03T15:36:45;100940.25;;;13.22;38.89
12949;BME280;6539;49.476;8.484;2023-03-03T15:40:02;100947.72;;;13.21;38.29
12949;BME280;6539;49.476;8.484;2023-03-03T15:45:36;100949.31;;;13.19;38.14
12949;BME280;6539;49.476;8.484;2023-03-03T15:48:37;100946.59;;;13.15;38.20
12949;BME280;6539;49.476;8.484;2023-03-03T15:51:49;100942.75;;;13.06;37.90
12949;BME280;6539;49.476;8.484;2023-03-03T15:56:54;100945.16;;;12.96;38.43
12949;BME280;6539;49.476;8.484;2023-03-03T15:59:56;100952.72;;;12.89;38.16
12949;BME280;6539;49.476;8.484;2023-03-03T16:02:48;100949.59;;;12.87;38.10
12949;BME280;6539;49.476;8.484;2023-03-03T16:13:45;100946.59;;;12.67;37.86
12949;BME280;6539;49.476;8.484;2023-03-03T16:16:50;100944.28;;;12.62;38.12
12949;BME280;6539;49.476;8.484;2023-03-03T16:27:51;100957.78;;;12.43;37.75
12949;BME280;6539;49.476;8.484;2023-03-03T16:31:09;100960.56;;;12.43;37.88
12949;BME280;6539;49.476;8.484;2023-03-03T16:33:59;100964.88;;;12.40;37.57
12949;BME280;6539;49.476;8.484;2023-03-03T16:36:43;100971.63;;;12.36;37.84
12949;BME280;6539;49.476;8.484;2023-03-03T16:42:31;100980.72;;;12.25;37.37
12949;BME280;6539;49.476;8.484;2023-03-03T16:45:27;100979.59;;;12.19;36.92
12949;BME280;6539;49.476;8.484;2023-03-03T16:48:21;100989.84;;;12.15;36.87
12949;BME280;6539;49.476;8.484;2023-03-03T16:54:33;100998.88;;;12.12;36.69
12949;BME280;6539;49.476;8.484;2023-03-03T17:00:28;101003.69;;;11.94;37.21
12949;BME280;6539;49.476;8.484;2023-03-03T17:17:42;101017.50;;;11.80;38.16
12949;BME280;6539;49.476;8.484;2023-03-03T17:20:48;101030.09;;;11.71;38.44
12949;BME280;6539;49.476;8.484;2023-03-03T17:43:14;101049.38;;;11.39;39.80
12949;BME280;6539;49.476;8.484;2023-03-03T17:45:48;101056.44;;;11.40;40.53
12949;BME280;6539;49.476;8.484;2023-03-03T17:59:49;101068.25;;;11.23;38.94
12949;BME280;6539;49.476;8.484;2023-03-03T18:02:40;101072.97;;;11.19;39.16
12949;BME280;6539;49.476;8.484;2023-03-03T18:14:04;101075.69;;;11.12;38.23
12949;BME280;6539;49.476;8.484;2023-03-03T18:22:51;101079.22;;;10.98;38.36
12949;BME280;6539;49.476;8.484;2023-03-03T18:26:26;101084.31;;;10.93;38.76
12949;BME280;6539;49.476;8.484;2023-03-03T18:28:23;101089.41;;;10.91;39.16
12949;BME280;6539;49.476;8.484;2023-03-03T18:31:00;101091.78;;;10.89;39.87
12949;BME280;6539;49.476;8.484;2023-03-03T18:33:59;101092.16;;;10.91;39.92
12949;BME280;6539;49.476;8.484;2023-03-03T18:38:59;101099.19;;;10.81;39.79
12949;BME280;6539;49.476;8.484;2023-03-03T18:42:28;101099.56;;;10.76;40.11
12949;BME280;6539;49.476;8.484;2023-03-03T18:44:58;101102.31;;;10.72;40.22
12949;BME280;6539;49.476;8.484;2023-03-03T18:48:09;101104.66;;;10.74;40.23
12949;BME280;6539;49.476;8.484;2023-03-03T18:50:45;101109.75;;;10.72;40.15
12949;BME280;6539;49.476;8.484;2023-03-03T18:53:21;101110.56;;;10.76;39.88
12949;BME280;6539;49.476;8.484;2023-03-03T18:55:57;101111.34;;;10.69;40.25
12949;BME280;6539;49.476;8.484;2023-03-03T18:58:38;101112.50;;;10.68;39.84
12949;BME280;6539;49.476;8.484;2023-03-03T19:04:18;101117.56;;;10.52;40.12
12949;BME280;6539;49.476;8.484;2023-03-03T19:09:20;101125.75;;;10.38;40.46
12949;BME280;6539;49.476;8.484;2023-03-03T19:12:09;101123.75;;;10.32;40.83